sensor_id;sensor_type;location;lat;lon;timestamp;pressure;altitude;pressure_sealevel;temperature;humidity
71559;BME280;59382;43.852;25.952;2023-03-29T00:00:25;101434.53;;;4.80;56.23
71559;BME280;59382;43.852;25.952;2023-03-29T00:02:51;101460.03;;;4.92;55.98
71559;BME280;59382;43.852;25.952;2023-03-29T00:05:18;101442.47;;;4.72;56.63
71559;BME280;59382;43.852;25.952;2023-03-29T00:07:48;101446.97;;;4.72;55.98
71559;BME280;59382;43.852;25.952;2023-03-29T00:10:20;101462.31;;;4.87;56.50
71559;BME280;59382;43.852;25.952;2023-03-29T00:12:46;101451.63;;;4.87;55.42
71559;BME280;59382;43.852;25.952;2023-03-29T00:15:12;101457.97;;;4.86;55.76
71559;BME280;59382;43.852;25.952;2023-03-29T00:17:38;101454.34;;;4.70;56.55
71559;BME280;59382;43.852;25.952;2023-03-29T00:20:04;101440.09;;;4.61;56.87
71559;BME280;59382;43.852;25.952;2023-03-29T00:22:38;101463.56;;;4.75;56.29
71559;BME280;59382;43.852;25.952;2023-03-29T00:25:04;101466.94;;;4.77;57.04
71559;BME280;59382;43.852;25.952;2023-03-29T00:27:32;101452.88;;;4.75;56.90
71559;BME280;59382;43.852;25.952;2023-03-29T00:29:57;101454.84;;;4.73;57.37
71559;BME280;59382;43.852;25.952;2023-03-29T00:32:24;101458.84;;;4.69;57.34
71559;BME280;59382;43.852;25.952;2023-03-29T00:34:50;101447.41;;;4.59;56.88
71559;BME280;59382;43.852;25.952;2023-03-29T00:37:16;101471.16;;;4.62;57.29
71559;BME280;59382;43.852;25.952;2023-03-29T00:39:43;101451.38;;;4.55;56.68
71559;BME280;59382;43.852;25.952;2023-03-29T00:42:14;101469.69;;;4.68;57.16
71559;BME280;59382;43.852;25.952;2023-03-29T00:47:56;101447.47;;;4.50;56.84
71559;BME280;59382;43.852;25.952;2023-03-29T00:56:08;101453.59;;;4.60;56.81
71559;BME280;59382;43.852;25.952;2023-03-29T01:01:11;101468.13;;;4.40;57.63
71559;BME280;59382;43.852;25.952;2023-03-29T01:03:55;101480.63;;;4.39;57.99
71559;BME280;59382;43.852;25.952;2023-03-29T01:06:25;101473.31;;;4.41;58.13
71559;BME280;59382;43.852;25.952;2023-03-29T01:08:56;101458.19;;;4.32;57.45
71559;BME280;59382;43.852;25.952;2023-03-29T01:11:28;101480.94;;;4.36;58.46
71559;BME280;59382;43.852;25.952;2023-03-29T01:14:00;101462.47;;;4.25;58.18
71559;BME280;59382;43.852;25.952;2023-03-29T01:16:29;101482.84;;;4.26;58.22
71559;BME280;59382;43.852;25.952;2023-03-29T01:18:55;101465.91;;;4.18;58.49
71559;BME280;59382;43.852;25.952;2023-03-29T01:21:37;101483.16;;;4.23;59.03
71559;BME280;59382;43.852;25.952;2023-03-29T01:24:19;101483.31;;;4.22;58.39
71559;BME280;59382;43.852;25.952;2023-03-29T01:30:09;101476.03;;;4.14;58.71
71559;BME280;59382;43.852;25.952;2023-03-29T01:32:43;101467.66;;;4.09;58.48
71559;BME280;59382;43.852;25.952;2023-03-29T01:38:14;101460.84;;;3.97;59.01
71559;BME280;59382;43.852;25.952;2023-03-29T01:40:43;101450.47;;;3.94;58.82
71559;BME280;59382;43.852;25.952;2023-03-29T01:43:23;101477.66;;;4.07;58.24
71559;BME280;59382;43.852;25.952;2023-03-29T01:46:16;101474.97;;;4.07;58.26
71559;BME280;59382;43.852;25.952;2023-03-29T01:54:19;101477.56;;;3.99;59.52
71559;BME280;59382;43.852;25.952;2023-03-29T01:56:47;101485.19;;;3.94;58.87
71559;BME280;59382;43.852;25.952;2023-03-29T01:59:18;101486.16;;;3.93;58.81
71559;BME280;59382;43.852;25.952;2023-03-29T02:01:54;101478.06;;;3.85;59.01
71559;BME280;59382;43.852;25.952;2023-03-29T02:04:28;101458.22;;;3.70;59.71
71559;BME280;59382;43.852;25.952;2023-03-29T02:06:56;101468.59;;;3.73;58.96
71559;BME280;59382;43.852;25.952;2023-03-29T02:09:24;101484.31;;;3.76;59.41
71559;BME280;59382;43.852;25.952;2023-03-29T02:11:50;101489.53;;;3.68;60.02
71559;BME280;59382;43.852;25.952;2023-03-29T02:14:19;101478.81;;;3.50;59.99
71559;BME280;59382;43.852;25.952;2023-03-29T02:16:45;101443.28;;;3.23;60.39
71559;BME280;59382;43.852;25.952;2023-03-29T02:19:11;101505.19;;;3.63;60.07
71559;BME280;59382;43.852;25.952;2023-03-29T02:24:06;101506.84;;;3.64;59.66
71559;BME280;59382;43.852;25.952;2023-03-29T02:26:33;101502.09;;;3.58;59.63
71559;BME280;59382;43.852;25.952;2023-03-29T02:28:58;101505.19;;;3.63;59.44
71559;BME280;59382;43.852;25.952;2023-03-29T02:31:33;101510.81;;;3.60;59.90
71559;BME280;59382;43.852;25.952;2023-03-29T02:35:08;101511.41;;;3.54;59.80
71559;BME280;59382;43.852;25.952;2023-03-29T02:37:16;101522.16;;;3.62;59.28
71559;BME280;59382;43.852;25.952;2023-03-29T02:39:43;101516.16;;;3.60;59.19
71559;BME280;59382;43.852;25.952;2023-03-29T02:42:12;101520.31;;;3.72;59.55
71559;BME280;59382;43.852;25.952;2023-03-29T02:44:42;101512.13;;;3.73;59.18
71559;BME280;59382;43.852;25.952;2023-03-29T02:47:15;101513.81;;;3.74;58.76
71559;BME280;59382;43.852;25.952;2023-03-29T02:49:41;101509.78;;;3.70;58.51
71559;BME280;59382;43.852;25.952;2023-03-29T02:52:10;101505.06;;;3.82;58.53
71559;BME280;59382;43.852;25.952;2023-03-29T02:54:39;101526.06;;;3.94;58.44
71559;BME280;59382;43.852;25.952;2023-03-29T02:57:08;101526.63;;;3.98;57.83
71559;BME280;59382;43.852;25.952;2023-03-29T02:59:35;101530.28;;;3.97;58.13
71559;BME280;59382;43.852;25.952;2023-03-29T03:02:03;101537.63;;;3.85;58.04
71559;BME280;59382;43.852;25.952;2023-03-29T03:04:30;101521.41;;;3.69;58.48
71559;BME280;59382;43.852;25.952;2023-03-29T03:06:56;101530.97;;;3.72;57.90
71559;BME280;59382;43.852;25.952;2023-03-29T03:09:22;101548.88;;;3.89;57.69
71559;BME280;59382;43.852;25.952;2023-03-29T03:11:48;101565.00;;;3.97;57.68
71559;BME280;59382;43.852;25.952;2023-03-29T03:14:13;101567.53;;;3.98;58.01
71559;BME280;59382;43.852;25.952;2023-03-29T03:16:41;101571.28;;;4.05;57.81
71559;BME280;59382;43.852;25.952;2023-03-29T03:19:07;101548.88;;;3.89;57.52
71559;BME280;59382;43.852;25.952;2023-03-29T03:21:34;101559.84;;;3.86;57.91
71559;BME280;59382;43.852;25.952;2023-03-29T03:24:03;101572.59;;;3.92;58.14
71559;BME280;59382;43.852;25.952;2023-03-29T03:26:28;101581.19;;;3.86;57.71
71559;BME280;59382;43.852;25.952;2023-03-29T03:28:54;101580.41;;;3.76;57.61
71559;BME280;59382;43.852;25.952;2023-03-29T03:31:20;101552.38;;;3.53;58.02
71559;BME280;59382;43.852;25.952;2023-03-29T03:33:51;101569.25;;;3.53;58.44
71559;BME280;59382;43.852;25.952;2023-03-29T03:36:19;101593.41;;;3.52;57.96
71559;BME280;59382;43.852;25.952;2023-03-29T03:38:53;101578.13;;;3.44;58.22
71559;BME280;59382;43.852;25.952;2023-03-29T03:41:18;101596.50;;;3.57;58.02
71559;BME280;59382;43.852;25.952;2023-03-29T03:43:44;101601.28;;;3.53;57.96
71559;BME280;59382;43.852;25.952;2023-03-29T03:46:14;101586.97;;;3.45;58.47
71559;BME280;59382;43.852;25.952;2023-03-29T03:48:40;101606.31;;;3.56;58.26
71559;BME280;59382;43.852;25.952;2023-03-29T03:51:06;101590.88;;;3.50;57.66
71559;BME280;59382;43.852;25.952;2023-03-29T03:53:31;101604.66;;;3.46;58.14
71559;BME280;59382;43.852;25.952;2023-03-29T03:55:58;101605.78;;;3.43;57.81
71559;BME280;59382;43.852;25.952;2023-03-29T03:58:26;101622.91;;;3.50;58.15
71559;BME280;59382;43.852;25.952;2023-03-29T04:00:52;101608.03;;;3.38;58.62
71559;BME280;59382;43.852;25.952;2023-03-29T04:03:19;101623.91;;;3.40;58.42
71559;BME280;59382;43.852;25.952;2023-03-29T04:05:46;101631.63;;;3.43;58.38
71559;BME280;59382;43.852;25.952;2023-03-29T04:08:12;101619.56;;;3.29;58.08
71559;BME280;59382;43.852;25.952;2023-03-29T04:10:38;101615.09;;;3.20;58.43
71559;BME280;59382;43.852;25.952;2023-03-29T04:13:04;101650.72;;;3.38;58.23
71559;BME280;59382;43.852;25.952;2023-03-29T04:15:31;101647.63;;;3.43;58.18
71559;BME280;59382;43.852;25.952;2023-03-29T04:17:58;101649.31;;;3.44;58.01
71559;BME280;59382;43.852;25.952;2023-03-29T04:20:24;101636.16;;;3.33;58.27
71559;BME280;59382;43.852;25.952;2023-03-29T04:22:50;101631.94;;;3.21;58.14
71559;BME280;59382;43.852;25.952;2023-03-29T04:25:19;101658.31;;;3.33;57.87
71559;BME280;59382;43.852;25.952;2023-03-29T04:27:47;101645.69;;;3.35;58.13
71559;BME280;59382;43.852;25.952;2023-03-29T04:30:13;101637.53;;;3.46;57.83
71559;BME280;59382;43.852;25.952;2023-03-29T04:32:38;101662.22;;;3.67;57.69
71559;BME280;59382;43.852;25.952;2023-03-29T04:35:05;101667.94;;;3.72;57.50
71559;BME280;59382;43.852;25.952;2023-03-29T04:37:31;101672.75;;;3.69;57.35
71559;BME280;59382;43.852;25.952;2023-03-29T04:39:56;101654.78;;;3.52;57.29
71559;BME280;59382;43.852;25.952;2023-03-29T04:42:25;101656.63;;;3.42;57.34
71559;BME280;59382;43.852;25.952;2023-03-29T04:44:51;101665.47;;;3.52;56.90
71559;BME280;59382;43.852;25.952;2023-03-29T04:47:18;101652.69;;;3.46;57.08
71559;BME280;59382;43.852;25.952;2023-03-29T04:49:44;101684.94;;;3.62;57.21
71559;BME280;59382;43.852;25.952;2023-03-29T04:52:09;101667.84;;;3.55;56.57
71559;BME280;59382;43.852;25.952;2023-03-29T04:54:35;101679.63;;;3.62;56.67
71559;BME280;59382;43.852;25.952;2023-03-29T04:57:03;101667.13;;;3.53;56.68
71559;BME280;59382;43.852;25.952;2023-03-29T04:59:28;101695.34;;;3.65;56.83
71559;BME280;59382;43.852;25.952;2023-03-29T05:01:54;101700.97;;;3.62;56.56
71559;BME280;59382;43.852;25.952;2023-03-29T05:04:19;101696.75;;;3.59;56.64
71559;BME280;59382;43.852;25.952;2023-03-29T05:06:45;101702.09;;;3.50;57.30
71559;BME280;59382;43.852;25.952;2023-03-29T05:09:11;101711.66;;;3.52;57.16
71559;BME280;59382;43.852;25.952;2023-03-29T05:11:37;101689.63;;;3.41;56.86
71559;BME280;59382;43.852;25.952;2023-03-29T05:14:03;101720.22;;;3.56;56.83
71559;BME280;59382;43.852;25.952;2023-03-29T05:16:31;101721.63;;;3.60;56.81
71559;BME280;59382;43.852;25.952;2023-03-29T05:18:58;101720.84;;;3.96;56.69
71559;BME280;59382;43.852;25.952;2023-03-29T05:21:24;101714.50;;;4.43;55.68
71559;BME280;59382;43.852;25.952;2023-03-29T05:23:51;101715.91;;;4.92;55.49
71559;BME280;59382;43.852;25.952;2023-03-29T05:26:16;101711.56;;;5.26;53.95
71559;BME280;59382;43.852;25.952;2023-03-29T05:28:42;101719.50;;;5.70;53.95
71559;BME280;59382;43.852;25.952;2023-03-29T05:31:08;101720.53;;;6.21;53.15
71559;BME280;59382;43.852;25.952;2023-03-29T05:33:34;101720.72;;;6.61;52.92
71559;BME280;59382;43.852;25.952;2023-03-29T05:36:03;101703.72;;;6.86;52.08
71559;BME280;59382;43.852;25.952;2023-03-29T05:38:29;101723.63;;;7.49;51.69
71559;BME280;59382;43.852;25.952;2023-03-29T05:40:57;101711.53;;;7.77;50.16
71559;BME280;59382;43.852;25.952;2023-03-29T05:43:23;101723.22;;;8.16;49.71
71559;BME280;59382;43.852;25.952;2023-03-29T05:45:48;101706.09;;;8.33;48.88
71559;BME280;59382;43.852;25.952;2023-03-29T05:48:16;101715.06;;;8.56;48.56
71559;BME280;59382;43.852;25.952;2023-03-29T05:50:46;101732.44;;;8.84;48.41
71559;BME280;59382;43.852;25.952;2023-03-29T05:53:12;101722.78;;;9.28;48.64
71559;BME280;59382;43.852;25.952;2023-03-29T05:55:38;101723.81;;;9.64;47.07
71559;BME280;59382;43.852;25.952;2023-03-29T05:58:03;101733.47;;;9.81;46.46
71559;BME280;59382;43.852;25.952;2023-03-29T06:00:29;101734.59;;;10.10;46.77
71559;BME280;59382;43.852;25.952;2023-03-29T06:02:57;101733.13;;;10.51;45.91
71559;BME280;59382;43.852;25.952;2023-03-29T06:05:23;101723.81;;;10.68;45.40
71559;BME280;59382;43.852;25.952;2023-03-29T06:07:48;101734.25;;;10.71;44.75
71559;BME280;59382;43.852;25.952;2023-03-29T06:10:14;101738.97;;;10.69;44.98
71559;BME280;59382;43.852;25.952;2023-03-29T06:12:40;101731.03;;;10.82;44.74
71559;BME280;59382;43.852;25.952;2023-03-29T06:15:06;101733.97;;;11.16;44.38
71559;BME280;59382;43.852;25.952;2023-03-29T06:17:33;101737.38;;;11.24;43.78
71559;BME280;59382;43.852;25.952;2023-03-29T06:20:00;101729.91;;;11.26;43.03
71559;BME280;59382;43.852;25.952;2023-03-29T06:22:26;101731.22;;;11.30;43.48
71559;BME280;59382;43.852;25.952;2023-03-29T06:24:52;101730.88;;;11.40;43.27
71559;BME280;59382;43.852;25.952;2023-03-29T06:27:18;101730.88;;;11.40;42.75
71559;BME280;59382;43.852;25.952;2023-03-29T06:29:44;101735.53;;;11.46;43.12
71559;BME280;59382;43.852;25.952;2023-03-29T06:32:13;101731.69;;;11.76;42.68
71559;BME280;59382;43.852;25.952;2023-03-29T06:34:39;101721.31;;;12.01;42.13
71559;BME280;59382;43.852;25.952;2023-03-29T06:37:05;101726.13;;;12.05;41.53
71559;BME280;59382;43.852;25.952;2023-03-29T06:39:30;101736.50;;;12.02;41.57
71559;BME280;59382;43.852;25.952;2023-03-29T06:41:57;101721.50;;;11.99;41.05
71559;BME280;59382;43.852;25.952;2023-03-29T06:44:23;101714.38;;;11.92;40.97
71559;BME280;59382;43.852;25.952;2023-03-29T06:46:49;101715.59;;;11.68;40.79
71559;BME280;59382;43.852;25.952;2023-03-29T06:49:15;101708.13;;;11.49;40.95
71559;BME280;59382;43.852;25.952;2023-03-29T06:51:41;101713.91;;;11.46;40.92
71559;BME280;59382;43.852;25.952;2023-03-29T06:54:06;101709.28;;;11.40;40.91
71559;BME280;59382;43.852;25.952;2023-03-29T06:56:32;101706.94;;;11.37;41.04
71559;BME280;59382;43.852;25.952;2023-03-29T06:58:58;101715.31;;;11.42;40.75
71559;BME280;59382;43.852;25.952;2023-03-29T07:01:23;101713.78;;;11.33;41.08
71559;BME280;59382;43.852;25.952;2023-03-29T07:03:49;101717.19;;;11.41;41.27
71559;BME280;59382;43.852;25.952;2023-03-29T07:06:15;101721.00;;;11.47;40.21
71559;BME280;59382;43.852;25.952;2023-03-29T07:08:42;101719.19;;;11.33;39.55
71559;BME280;59382;43.852;25.952;2023-03-29T07:11:13;101706.50;;;11.12;40.37
71559;BME280;59382;43.852;25.952;2023-03-29T07:13:39;101706.41;;;11.06;40.36
71559;BME280;59382;43.852;25.952;2023-03-29T07:16:08;101712.56;;;11.00;40.43
71559;BME280;59382;43.852;25.952;2023-03-29T07:18:38;101716.69;;;10.96;40.07
71559;BME280;59382;43.852;25.952;2023-03-29T07:21:06;101708.88;;;11.01;40.53
71559;BME280;59382;43.852;25.952;2023-03-29T07:23:32;101723.16;;;11.16;40.25
71559;BME280;59382;43.852;25.952;2023-03-29T07:25:58;101714.03;;;11.17;39.75
71559;BME280;59382;43.852;25.952;2023-03-29T07:28:23;101733.19;;;11.22;39.58
71559;BME280;59382;43.852;25.952;2023-03-29T07:30:49;101728.56;;;11.16;39.62
71559;BME280;59382;43.852;25.952;2023-03-29T07:33:15;101716.44;;;11.12;39.88
71559;BME280;59382;43.852;25.952;2023-03-29T07:35:41;101720.47;;;11.16;39.97
71559;BME280;59382;43.852;25.952;2023-03-29T07:38:08;101708.88;;;11.22;40.07
71559;BME280;59382;43.852;25.952;2023-03-29T07:40:34;101712.75;;;11.34;39.24
71559;BME280;59382;43.852;25.952;2023-03-29T07:42:59;101703.47;;;11.22;39.07
71559;BME280;59382;43.852;25.952;2023-03-29T07:45:26;101725.13;;;11.07;39.17
71559;BME280;59382;43.852;25.952;2023-03-29T07:47:54;101709.97;;;10.56;39.15
71559;BME280;59382;43.852;25.952;2023-03-29T07:50:20;101714.22;;;10.22;39.31
71559;BME280;59382;43.852;25.952;2023-03-29T07:52:46;101725.59;;;9.94;39.74
71559;BME280;59382;43.852;25.952;2023-03-29T07:55:13;101726.84;;;9.69;40.34
71559;BME280;59382;43.852;25.952;2023-03-29T07:57:39;101737.75;;;9.53;40.67
71559;BME280;59382;43.852;25.952;2023-03-29T08:00:07;101728.41;;;9.41;40.83
71559;BME280;59382;43.852;25.952;2023-03-29T08:02:47;101726.06;;;9.38;41.02
71559;BME280;59382;43.852;25.952;2023-03-29T08:05:14;101726.59;;;9.34;41.04
71559;BME280;59382;43.852;25.952;2023-03-29T08:07:43;101721.94;;;9.50;41.24
71559;BME280;59382;43.852;25.952;2023-03-29T08:10:13;101701.13;;;9.81;40.61
71559;BME280;59382;43.852;25.952;2023-03-29T08:12:40;101699.72;;;10.23;40.41
71559;BME280;59382;43.852;25.952;2023-03-29T08:15:07;101706.63;;;10.25;38.78
71559;BME280;59382;43.852;25.952;2023-03-29T08:17:33;101705.81;;;10.02;37.88
71559;BME280;59382;43.852;25.952;2023-03-29T08:19:59;101707.91;;;9.77;37.87
71559;BME280;59382;43.852;25.952;2023-03-29T08:22:25;101679.19;;;9.47;37.26
71559;BME280;59382;43.852;25.952;2023-03-29T08:24:52;101706.59;;;9.51;37.65
71559;BME280;59382;43.852;25.952;2023-03-29T08:27:17;101708.88;;;9.39;37.21
71559;BME280;59382;43.852;25.952;2023-03-29T08:29:43;101697.03;;;9.26;37.54
71559;BME280;59382;43.852;25.952;2023-03-29T08:32:09;101710.97;;;9.29;37.48
71559;BME280;59382;43.852;25.952;2023-03-29T08:34:35;101703.63;;;9.23;37.39
71559;BME280;59382;43.852;25.952;2023-03-29T08:37:01;101689.25;;;9.53;37.81
71559;BME280;59382;43.852;25.952;2023-03-29T08:39:29;101684.56;;;9.70;36.51
71559;BME280;59382;43.852;25.952;2023-03-29T08:44:54;101703.34;;;9.92;35.75
71559;BME280;59382;43.852;25.952;2023-03-29T08:50:11;101701.84;;;9.75;35.46
71559;BME280;59382;43.852;25.952;2023-03-29T08:52:52;101699.50;;;9.72;35.67
71559;BME280;59382;43.852;25.952;2023-03-29T08:55:32;101696.22;;;9.99;34.73
71559;BME280;59382;43.852;25.952;2023-03-29T08:58:02;101706.41;;;9.89;35.05
71559;BME280;59382;43.852;25.952;2023-03-29T09:00:44;101693.75;;;9.75;34.78
71559;BME280;59382;43.852;25.952;2023-03-29T09:03:21;101700.66;;;9.92;34.31
71559;BME280;59382;43.852;25.952;2023-03-29T09:06:10;101704.75;;;9.88;34.90
71559;BME280;59382;43.852;25.952;2023-03-29T09:08:37;101706.22;;;9.76;34.80
71559;BME280;59382;43.852;25.952;2023-03-29T09:11:51;101707.66;;;9.64;34.64
71559;BME280;59382;43.852;25.952;2023-03-29T09:19:18;101685.50;;;9.09;33.97
71559;BME280;59382;43.852;25.952;2023-03-29T09:27:13;101713.06;;;9.19;35.41
71559;BME280;59382;43.852;25.952;2023-03-29T09:29:57;101705.75;;;9.05;35.71
71559;BME280;59382;43.852;25.952;2023-03-29T09:35:35;101737.00;;;9.14;35.88
71559;BME280;59382;43.852;25.952;2023-03-29T09:38:02;101715.94;;;9.18;36.23
71559;BME280;59382;43.852;25.952;2023-03-29T09:40:46;101722.34;;;9.39;36.10
71559;BME280;59382;43.852;25.952;2023-03-29T09:43:17;101731.69;;;9.51;36.06
71559;BME280;59382;43.852;25.952;2023-03-29T09:45:50;101759.38;;;9.37;35.43
71559;BME280;59382;43.852;25.952;2023-03-29T09:48:18;101760.66;;;8.88;35.07
71559;BME280;59382;43.852;25.952;2023-03-29T09:50:47;101767.56;;;8.44;36.30
71559;BME280;59382;43.852;25.952;2023-03-29T09:53:16;101800.91;;;8.27;36.63
71559;BME280;59382;43.852;25.952;2023-03-29T09:55:44;101780.03;;;7.89;38.74
71559;BME280;59382;43.852;25.952;2023-03-29T09:58:15;101752.50;;;7.71;39.83
71559;BME280;59382;43.852;25.952;2023-03-29T10:00:41;101757.19;;;7.77;40.42
71559;BME280;59382;43.852;25.952;2023-03-29T10:03:07;101736.22;;;7.88;40.55
71559;BME280;59382;43.852;25.952;2023-03-29T10:05:34;101742.09;;;8.24;40.70
71559;BME280;59382;43.852;25.952;2023-03-29T10:08:17;101753.16;;;8.76;40.71
71559;BME280;59382;43.852;25.952;2023-03-29T10:10:44;101731.44;;;8.85;40.19
71559;BME280;59382;43.852;25.952;2023-03-29T10:13:14;101742.47;;;8.98;39.97
71559;BME280;59382;43.852;25.952;2023-03-29T10:15:41;101743.78;;;9.02;40.66
71559;BME280;59382;43.852;25.952;2023-03-29T10:18:12;101745.59;;;9.10;40.37
71559;BME280;59382;43.852;25.952;2023-03-29T10:20:39;101752.47;;;9.12;40.13
71559;BME280;59382;43.852;25.952;2023-03-29T10:23:06;101755.25;;;8.96;39.28
71559;BME280;59382;43.852;25.952;2023-03-29T10:25:36;101749.81;;;8.74;39.23
71559;BME280;59382;43.852;25.952;2023-03-29T10:28:16;101746.16;;;8.59;39.34
71559;BME280;59382;43.852;25.952;2023-03-29T10:30:44;101747.03;;;8.51;39.37
71559;BME280;59382;43.852;25.952;2023-03-29T10:33:17;101750.72;;;8.58;39.06
71559;BME280;59382;43.852;25.952;2023-03-29T10:35:45;101741.97;;;8.56;39.22
71559;BME280;59382;43.852;25.952;2023-03-29T10:38:13;101740.09;;;8.65;39.03
71559;BME280;59382;43.852;25.952;2023-03-29T10:43:13;101730.16;;;9.04;38.35
71559;BME280;59382;43.852;25.952;2023-03-29T10:45:54;101738.94;;;9.28;37.79
71559;BME280;59382;43.852;25.952;2023-03-29T10:48:27;101720.78;;;9.22;37.55
71559;BME280;59382;43.852;25.952;2023-03-29T10:50:57;101719.91;;;9.30;37.41
71559;BME280;59382;43.852;25.952;2023-03-29T10:53:30;101707.06;;;9.32;37.04
71559;BME280;59382;43.852;25.952;2023-03-29T10:56:38;101720.69;;;9.38;35.98
71559;BME280;59382;43.852;25.952;2023-03-29T10:59:31;101710.19;;;9.43;35.32
71559;BME280;59382;43.852;25.952;2023-03-29T11:15:50;101697.91;;;10.00;34.57
71559;BME280;59382;43.852;25.952;2023-03-29T11:24:14;101668.31;;;9.92;33.90
71559;BME280;59382;43.852;25.952;2023-03-29T11:32:16;101695.00;;;10.02;34.19
71559;BME280;59382;43.852;25.952;2023-03-29T11:35:28;101676.22;;;9.94;33.48
71559;BME280;59382;43.852;25.952;2023-03-29T11:40:59;101690.03;;;10.14;33.31
71559;BME280;59382;43.852;25.952;2023-03-29T11:43:36;101690.69;;;10.16;33.86
71559;BME280;59382;43.852;25.952;2023-03-29T11:46:16;101703.44;;;10.07;32.77
71559;BME280;59382;43.852;25.952;2023-03-29T11:49:16;101692.19;;;9.95;32.94
71559;BME280;59382;43.852;25.952;2023-03-29T11:51:48;101679.28;;;9.91;33.54
71559;BME280;59382;43.852;25.952;2023-03-29T11:54:21;101675.94;;;9.74;33.68
71559;BME280;59382;43.852;25.952;2023-03-29T11:56:59;101678.81;;;9.73;33.42
71559;BME280;59382;43.852;25.952;2023-03-29T11:59:31;101692.31;;;9.87;34.27
71559;BME280;59382;43.852;25.952;2023-03-29T12:02:08;101684.13;;;9.95;33.65
71559;BME280;59382;43.852;25.952;2023-03-29T12:04:56;101670.91;;;9.86;32.94
71559;BME280;59382;43.852;25.952;2023-03-29T12:07:34;101663.38;;;9.81;32.40
71559;BME280;59382;43.852;25.952;2023-03-29T12:10:12;101691.56;;;9.93;32.42
71559;BME280;59382;43.852;25.952;2023-03-29T12:12:52;101687.84;;;9.94;32.85
71559;BME280;59382;43.852;25.952;2023-03-29T12:15:23;101681.06;;;9.98;32.23
71559;BME280;59382;43.852;25.952;2023-03-29T12:20:38;101687.53;;;9.89;32.61
71559;BME280;59382;43.852;25.952;2023-03-29T12:23:06;101689.06;;;9.92;32.04
71559;BME280;59382;43.852;25.952;2023-03-29T12:31:29;101707.28;;;9.67;32.06
71559;BME280;59382;43.852;25.952;2023-03-29T12:39:26;101699.06;;;9.83;32.07
71559;BME280;59382;43.852;25.952;2023-03-29T12:42:04;101699.72;;;9.85;31.60
71559;BME280;59382;43.852;25.952;2023-03-29T12:44:31;101699.00;;;9.91;31.86
71559;BME280;59382;43.852;25.952;2023-03-29T12:46:58;101696.38;;;9.83;32.08
71559;BME280;59382;43.852;25.952;2023-03-29T12:49:28;101696.00;;;9.86;31.91
71559;BME280;59382;43.852;25.952;2023-03-29T12:51:57;101676.84;;;9.81;31.99
71559;BME280;59382;43.852;25.952;2023-03-29T12:54:26;101682.81;;;9.91;31.77
71559;BME280;59382;43.852;25.952;2023-03-29T12:56:58;101687.00;;;9.94;31.22
71559;BME280;59382;43.852;25.952;2023-03-29T13:10:06;101671.81;;;10.30;28.97
71559;BME280;59382;43.852;25.952;2023-03-29T13:12:44;101681.56;;;10.31;29.03
71559;BME280;59382;43.852;25.952;2023-03-29T13:31:54;101680.28;;;10.13;28.65
71559;BME280;59382;43.852;25.952;2023-03-29T13:39:54;101681.31;;;10.26;29.64
71559;BME280;59382;43.852;25.952;2023-03-29T13:45:28;101681.59;;;10.46;28.01
71559;BME280;59382;43.852;25.952;2023-03-29T13:48:27;101696.06;;;10.45;28.71
71559;BME280;59382;43.852;25.952;2023-03-29T13:50:55;101690.22;;;10.56;29.22
71559;BME280;59382;43.852;25.952;2023-03-29T13:53:34;101681.84;;;10.65;28.37
71559;BME280;59382;43.852;25.952;2023-03-29T13:56:01;101663.22;;;10.56;28.81
71559;BME280;59382;43.852;25.952;2023-03-29T13:58:46;101682.94;;;10.71;27.45
71559;BME280;59382;43.852;25.952;2023-03-29T14:04:10;101684.72;;;10.64;28.43
71559;BME280;59382;43.852;25.952;2023-03-29T14:06:38;101678.69;;;10.62;28.31
71559;BME280;59382;43.852;25.952;2023-03-29T14:09:07;101685.47;;;10.58;28.27
71559;BME280;59382;43.852;25.952;2023-03-29T14:11:34;101687.59;;;10.48;28.53
71559;BME280;59382;43.852;25.952;2023-03-29T14:14:01;101678.59;;;10.41;28.46
71559;BME280;59382;43.852;25.952;2023-03-29T14:16:34;101691.44;;;10.39;27.61
71559;BME280;59382;43.852;25.952;2023-03-29T14:19:03;101679.72;;;10.32;28.31
71559;BME280;59382;43.852;25.952;2023-03-29T14:21:32;101674.16;;;10.19;27.63
71559;BME280;59382;43.852;25.952;2023-03-29T14:24:00;101694.13;;;10.24;27.81
71559;BME280;59382;43.852;25.952;2023-03-29T14:26:32;101698.72;;;10.24;28.03
71559;BME280;59382;43.852;25.952;2023-03-29T14:29:00;101698.59;;;10.17;27.06
71559;BME280;59382;43.852;25.952;2023-03-29T14:33:52;101700.03;;;10.05;26.26
71559;BME280;59382;43.852;25.952;2023-03-29T14:36:19;101712.41;;;9.99;26.39
71559;BME280;59382;43.852;25.952;2023-03-29T14:38:49;101691.56;;;9.93;26.25
71559;BME280;59382;43.852;25.952;2023-03-29T14:41:15;101693.13;;;9.88;26.76
71559;BME280;59382;43.852;25.952;2023-03-29T14:43:42;101679.47;;;9.89;26.59
71559;BME280;59382;43.852;25.952;2023-03-29T14:46:08;101711.38;;;10.00;26.35
71559;BME280;59382;43.852;25.952;2023-03-29T14:48:35;101715.91;;;10.00;26.66
71559;BME280;59382;43.852;25.952;2023-03-29T14:51:01;101697.34;;;9.90;26.41
71559;BME280;59382;43.852;25.952;2023-03-29T14:53:28;101721.13;;;10.01;26.85
71559;BME280;59382;43.852;25.952;2023-03-29T14:55:56;101724.50;;;10.03;27.03
71559;BME280;59382;43.852;25.952;2023-03-29T14:58:33;101717.06;;;10.06;26.38
71559;BME280;59382;43.852;25.952;2023-03-29T15:01:14;101710.34;;;10.01;26.57
71559;BME280;59382;43.852;25.952;2023-03-29T15:03:42;101699.56;;;10.01;27.24
71559;BME280;59382;43.852;25.952;2023-03-29T15:06:08;101713.50;;;10.13;27.40
71559;BME280;59382;43.852;25.952;2023-03-29T15:08:37;101723.06;;;10.16;27.12
71559;BME280;59382;43.852;25.952;2023-03-29T15:11:17;101705.28;;;10.07;26.89